createdAt,value
2018-12-30T00:00:24.425Z,18.40
2018-12-30T00:02:53.925Z,18.97
2018-12-30T00:05:22.863Z,16.60
2018-12-30T00:07:51.415Z,19.17
2018-12-30T00:10:20.303Z,18.00
2018-12-30T00:12:48.885Z,19.27
2018-12-30T00:15:17.725Z,19.50
2018-12-30T00:17:46.333Z,17.70
2018-12-30T00:20:15.187Z,15.83
2018-12-30T00:22:43.747Z,16.70
2018-12-30T00:25:12.310Z,17.30
2018-12-30T00:27:40.869Z,15.40
2018-12-30T00:30:09.546Z,17.23
2018-12-30T00:32:38.345Z,15.60
2018-12-30T00:35:06.895Z,14.37
2018-12-30T00:37:35.443Z,13.43
2018-12-30T00:40:04.512Z,12.53
2018-12-30T00:42:33.047Z,12.07
2018-12-30T00:45:01.595Z,12.80
2018-12-30T00:47:30.430Z,12.83
2018-12-30T00:49:58.960Z,12.10
2018-12-30T00:52:27.502Z,10.60
2018-12-30T00:54:56.076Z,11.93
2018-12-30T00:57:24.994Z,9.63
2018-12-30T00:59:54.359Z,10.05
2018-12-30T01:02:23.008Z,8.60
2018-12-30T01:04:51.550Z,9.23
2018-12-30T01:07:20.179Z,8.57
2018-12-30T01:09:48.758Z,9.00
2018-12-30T01:12:17.411Z,7.85
2018-12-30T01:14:45.993Z,9.00
2018-12-30T01:17:14.529Z,7.90
2018-12-30T01:19:43.078Z,8.43
2018-12-30T01:22:11.533Z,7.70
2018-12-30T01:24:40.070Z,7.17
2018-12-30T01:27:08.648Z,7.30
2018-12-30T01:29:37.190Z,6.10
2018-12-30T01:32:06.014Z,8.70
2018-12-30T01:34:34.562Z,7.07
2018-12-30T01:37:03.096Z,6.13
2018-12-30T01:39:31.758Z,6.13
2018-12-30T01:42:00.343Z,13.17
2018-12-30T01:44:28.918Z,5.77
2018-12-30T01:46:57.442Z,4.30
2018-12-30T01:49:25.994Z,5.43
2018-12-30T01:51:54.569Z,4.90
2018-12-30T01:54:23.173Z,6.00
2018-12-30T01:56:51.919Z,4.67
2018-12-30T01:59:20.450Z,5.13
2018-12-30T02:01:48.970Z,4.63
2018-12-30T02:04:17.597Z,3.50
2018-12-30T02:06:46.053Z,4.17
2018-12-30T02:09:14.629Z,3.90
2018-12-30T02:11:43.110Z,3.60
2018-12-30T02:14:11.644Z,2.90
2018-12-30T02:16:40.415Z,3.63
2018-12-30T02:19:09.432Z,2.97
2018-12-30T02:21:41.196Z,2.97
2018-12-30T02:24:08.189Z,2.23
2018-12-30T02:26:36.725Z,2.77
2018-12-30T02:29:05.262Z,2.37
2018-12-30T02:31:34.020Z,2.73
2018-12-30T02:34:02.590Z,2.17
2018-12-30T02:36:31.153Z,2.30
2018-12-30T02:38:59.708Z,2.33
2018-12-30T02:41:28.256Z,2.37
2018-12-30T02:43:57.440Z,1.80
2018-12-30T02:46:25.969Z,1.70
2018-12-30T02:48:54.510Z,2.10
2018-12-30T02:51:23.276Z,2.00
2018-12-30T02:53:51.808Z,2.13
2018-12-30T02:56:20.649Z,1.90
2018-12-30T02:58:49.225Z,2.23
2018-12-30T03:01:17.793Z,2.25
2018-12-30T03:03:46.590Z,1.83
2018-12-30T03:06:15.133Z,3.03
2018-12-30T03:08:43.989Z,2.43
2018-12-30T03:11:12.563Z,2.85
2018-12-30T03:13:41.019Z,3.20
2018-12-30T03:16:09.490Z,2.67
2018-12-30T03:18:38.036Z,2.63
2018-12-30T03:21:06.715Z,2.53
2018-12-30T03:23:35.250Z,3.60
2018-12-30T03:26:03.733Z,3.87
2018-12-30T03:28:32.217Z,3.47
2018-12-30T03:31:00.672Z,3.00
2018-12-30T03:33:29.174Z,3.40
2018-12-30T03:35:57.735Z,3.58
2018-12-30T03:38:26.202Z,3.60
2018-12-30T03:40:55.125Z,3.65
2018-12-30T03:43:23.821Z,4.30
2018-12-30T03:45:52.358Z,3.50
2018-12-30T03:48:20.818Z,3.60
2018-12-30T03:50:49.314Z,3.50
2018-12-30T03:53:17.978Z,4.67
2018-12-30T03:55:46.423Z,4.03
2018-12-30T03:58:14.900Z,4.00
2018-12-30T04:00:43.403Z,4.40
2018-12-30T04:03:11.877Z,5.00
2018-12-30T04:05:40.365Z,4.10
2018-12-30T04:08:09.009Z,4.90
2018-12-30T04:10:37.559Z,4.47
2018-12-30T04:13:06.061Z,4.70
2018-12-30T04:15:34.525Z,4.83
2018-12-30T04:18:03.289Z,4.00
2018-12-30T04:20:31.775Z,5.30
2018-12-30T04:23:00.235Z,5.37
2018-12-30T04:25:28.929Z,5.03
2018-12-30T04:27:57.406Z,5.73
2018-12-30T04:30:25.945Z,5.80
2018-12-30T04:32:54.500Z,5.47
2018-12-30T04:35:22.979Z,4.83
2018-12-30T04:37:51.529Z,4.50
2018-12-30T04:40:19.997Z,5.07
2018-12-30T04:42:48.676Z,5.20
2018-12-30T04:45:17.145Z,5.67
2018-12-30T04:47:45.619Z,4.33
2018-12-30T04:50:14.113Z,4.30
2018-12-30T04:52:42.567Z,3.97
2018-12-30T04:55:11.059Z,3.90
2018-12-30T04:57:39.590Z,4.40
2018-12-30T05:00:08.509Z,4.73
2018-12-30T05:02:36.956Z,3.50
2018-12-30T05:05:06.338Z,3.87
2018-12-30T05:07:34.886Z,4.37
2018-12-30T05:10:03.823Z,4.13
2018-12-30T05:12:32.311Z,4.00
2018-12-30T05:15:00.882Z,3.80
2018-12-30T05:17:29.335Z,4.00
2018-12-30T05:19:57.805Z,4.63
2018-12-30T05:22:33.665Z,4.63
2018-12-30T05:24:56.498Z,4.73
2018-12-30T05:27:25.059Z,3.73
2018-12-30T05:29:53.566Z,4.90
2018-12-30T05:32:22.097Z,4.50
2018-12-30T05:34:50.570Z,4.63
2018-12-30T05:37:19.114Z,4.30
2018-12-30T05:39:47.582Z,4.67
2018-12-30T05:42:16.512Z,5.77
2018-12-30T05:44:45.047Z,4.73
2018-12-30T05:47:13.563Z,5.43
2018-12-30T05:49:42.101Z,4.60
2018-12-30T05:52:10.598Z,5.60
2018-12-30T05:54:39.084Z,5.80
2018-12-30T05:57:07.659Z,6.20
2018-12-30T05:59:36.118Z,5.83
2018-12-30T06:02:04.594Z,6.00
2018-12-30T06:04:33.087Z,5.90
2018-12-30T06:07:01.552Z,6.35
2018-12-30T06:09:30.047Z,6.47
2018-12-30T06:11:58.517Z,6.17
2018-12-30T06:14:27.004Z,6.60
2018-12-30T06:16:56.078Z,6.08
2018-12-30T06:19:24.551Z,5.90
2018-12-30T06:21:53.113Z,7.00
2018-12-30T06:24:21.591Z,6.67
2018-12-30T06:26:50.080Z,6.85
2018-12-30T06:29:18.556Z,6.83
2018-12-30T06:31:47.092Z,6.53
2018-12-30T06:34:15.658Z,7.27
2018-12-30T06:36:44.202Z,6.17
2018-12-30T06:39:12.691Z,6.40
2018-12-30T06:41:41.275Z,5.23
2018-12-30T06:44:10.652Z,6.35
2018-12-30T06:46:39.235Z,6.85
2018-12-30T06:49:07.726Z,6.10
2018-12-30T06:51:36.272Z,5.80
2018-12-30T06:54:04.792Z,6.75
2018-12-30T06:56:33.522Z,6.40
2018-12-30T06:59:03.430Z,5.90
2018-12-30T07:01:31.899Z,5.90
2018-12-30T07:04:00.678Z,5.62
2018-12-30T07:06:29.255Z,5.70
2018-12-30T07:08:57.737Z,6.47
2018-12-30T07:11:26.376Z,6.60
2018-12-30T07:13:55.009Z,5.50
2018-12-30T07:16:23.503Z,6.70
2018-12-30T07:18:52.090Z,6.27
2018-12-30T07:21:20.970Z,6.10
2018-12-30T07:23:49.511Z,6.20
2018-12-30T07:26:18.059Z,6.10
2018-12-30T07:28:46.603Z,6.30
2018-12-30T07:31:15.253Z,6.70
2018-12-30T07:33:43.793Z,7.17
2018-12-30T07:36:12.253Z,6.40
2018-12-30T07:38:40.815Z,6.83
2018-12-30T07:41:09.281Z,7.10
2018-12-30T07:43:37.861Z,4.30
2018-12-30T07:46:06.381Z,5.77
2018-12-30T07:48:34.873Z,5.73
2018-12-30T07:51:03.400Z,5.20
2018-12-30T07:53:31.941Z,5.37
2018-12-30T07:56:00.416Z,4.73
2018-12-30T07:58:29.074Z,5.10
2018-12-30T08:00:57.598Z,4.80
2018-12-30T08:03:26.058Z,4.73
2018-12-30T08:05:54.583Z,4.80
2018-12-30T08:08:23.074Z,5.13
2018-12-30T08:10:51.596Z,4.40
2018-12-30T08:13:20.206Z,4.70
2018-12-30T08:15:49.019Z,4.80
2018-12-30T08:18:18.144Z,4.90
2018-12-30T08:20:46.717Z,3.90
2018-12-30T08:23:21.481Z,4.50
2018-12-30T08:25:45.384Z,3.97
2018-12-30T08:28:13.855Z,4.50
2018-12-30T08:30:42.442Z,4.90
2018-12-30T08:33:10.914Z,4.67
2018-12-30T08:35:39.376Z,4.33
2018-12-30T08:38:07.935Z,3.87
2018-12-30T08:40:36.438Z,4.15
2018-12-30T08:43:04.902Z,4.50
2018-12-30T08:45:33.427Z,3.63
2018-12-30T08:48:01.985Z,4.42
2018-12-30T08:50:30.458Z,3.50
2018-12-30T08:52:59.060Z,2.93
2018-12-30T08:55:27.811Z,4.20
2018-12-30T08:57:58.502Z,3.67
2018-12-30T09:00:27.094Z,3.63
2018-12-30T09:02:55.690Z,5.63
2018-12-30T09:05:24.233Z,3.77
2018-12-30T09:07:52.792Z,3.93
2018-12-30T09:10:21.370Z,5.10
2018-12-30T09:12:49.833Z,4.27
2018-12-30T09:15:18.884Z,5.22
2018-12-30T09:17:47.706Z,5.23
2018-12-30T09:20:16.215Z,4.87
2018-12-30T09:22:44.732Z,4.47
2018-12-30T09:25:13.301Z,4.65
2018-12-30T09:27:41.818Z,5.10
2018-12-30T09:30:10.347Z,5.30
2018-12-30T09:32:38.902Z,4.63
2018-12-30T09:35:07.490Z,4.63
2018-12-30T09:37:37.373Z,5.83
2018-12-30T09:40:07.146Z,6.22
2018-12-30T09:42:35.767Z,9.93
2018-12-30T09:45:05.574Z,7.57
2018-12-30T09:47:34.125Z,6.70
2018-12-30T09:50:02.663Z,8.17
2018-12-30T09:52:31.125Z,6.70
2018-12-30T09:54:59.910Z,6.10
2018-12-30T09:57:28.443Z,7.33
2018-12-30T09:59:56.927Z,6.50
2018-12-30T10:02:25.454Z,8.20
2018-12-30T10:04:54.005Z,7.00
2018-12-30T10:07:22.508Z,7.17
2018-12-30T10:09:51.052Z,7.50
2018-12-30T10:12:19.602Z,6.73
2018-12-30T10:14:48.125Z,7.43
2018-12-30T10:17:16.639Z,7.12
2018-12-30T10:19:45.225Z,7.10
2018-12-30T10:22:13.745Z,7.55
2018-12-30T10:24:42.365Z,7.63
2018-12-30T10:27:10.923Z,6.50
2018-12-30T10:29:39.430Z,8.33
2018-12-30T10:32:07.891Z,9.00
2018-12-30T10:34:36.457Z,9.00
2018-12-30T10:37:05.054Z,9.37
2018-12-30T10:39:33.509Z,8.73
2018-12-30T10:42:02.035Z,7.73
2018-12-30T10:44:30.599Z,7.63
2018-12-30T10:46:59.096Z,9.00
2018-12-30T10:49:27.572Z,9.73
2018-12-30T10:51:56.149Z,10.30
2018-12-30T10:54:24.695Z,7.97
2018-12-30T10:56:53.275Z,10.13
2018-12-30T10:59:21.803Z,9.00
2018-12-30T11:01:50.669Z,9.80
2018-12-30T11:04:19.162Z,9.20
2018-12-30T11:06:47.772Z,14.28
2018-12-30T11:09:16.366Z,15.03
2018-12-30T11:11:44.962Z,14.17
2018-12-30T11:14:13.498Z,10.73
2018-12-30T11:16:42.050Z,8.53
2018-12-30T11:19:10.818Z,9.93
2018-12-30T11:21:39.349Z,8.47
2018-12-30T11:24:08.643Z,12.90
2018-12-30T11:26:38.629Z,10.90
2018-12-30T11:29:07.087Z,9.47
2018-12-30T11:31:35.592Z,8.30
2018-12-30T11:34:04.313Z,9.33
2018-12-30T11:36:32.772Z,9.80
2018-12-30T11:39:01.245Z,9.17
2018-12-30T11:41:29.803Z,9.53
2018-12-30T11:43:58.284Z,9.20
2018-12-30T11:46:27.014Z,7.83
2018-12-30T11:48:55.549Z,10.27
2018-12-30T11:51:24.010Z,9.20
2018-12-30T11:53:52.512Z,10.47
2018-12-30T11:56:20.986Z,9.93
2018-12-30T11:58:49.851Z,8.07
2018-12-30T12:01:18.611Z,8.23
2018-12-30T12:03:47.103Z,8.70
2018-12-30T12:06:15.655Z,7.93
2018-12-30T12:08:45.503Z,11.90
2018-12-30T12:11:13.974Z,8.10
2018-12-30T12:13:42.510Z,8.80
2018-12-30T12:16:11.192Z,8.17
2018-12-30T12:18:39.660Z,8.97
2018-12-30T12:21:08.126Z,9.70
2018-12-30T12:23:36.641Z,9.67
2018-12-30T12:26:05.197Z,10.43
2018-12-30T12:28:33.675Z,8.50
2018-12-30T12:31:02.304Z,9.13
2018-12-30T12:33:30.819Z,8.60
2018-12-30T12:35:59.291Z,10.60
2018-12-30T12:38:27.864Z,9.90
2018-12-30T12:40:56.429Z,11.53
2018-12-30T12:43:25.010Z,8.70
2018-12-30T12:45:53.580Z,8.43
2018-12-30T12:48:23.094Z,6.80
2018-12-30T12:50:51.632Z,6.93
2018-12-30T12:53:20.262Z,8.33
2018-12-30T12:55:49.116Z,8.10
2018-12-30T12:58:17.655Z,8.60
2018-12-30T13:00:46.266Z,7.50
2018-12-30T13:03:14.829Z,7.00
2018-12-30T13:05:43.377Z,7.70
2018-12-30T13:08:11.920Z,6.57
2018-12-30T13:10:40.665Z,10.20
2018-12-30T13:13:09.237Z,7.00
2018-12-30T14:20:48.936Z,9.37
2018-12-30T14:23:29.634Z,10.87
2018-12-30T14:26:10.499Z,11.70
2018-12-30T14:28:50.765Z,11.23
2018-12-30T14:31:31.516Z,14.67
2018-12-30T14:34:10.232Z,10.43
2018-12-30T14:36:58.101Z,11.23
2018-12-30T14:39:45.959Z,14.27
2018-12-30T14:42:33.794Z,10.93
2018-12-30T14:48:28.572Z,9.60
2018-12-30T14:51:16.457Z,11.00
2018-12-30T14:54:04.284Z,8.90
2018-12-30T14:56:52.186Z,8.93
2018-12-30T14:59:40.039Z,9.70
2018-12-30T15:02:08.503Z,10.23
2018-12-30T15:07:49.602Z,8.90
2018-12-30T15:10:37.416Z,8.40
2018-12-30T15:13:25.224Z,9.03
2018-12-30T15:16:13.072Z,28.90
2018-12-30T15:21:54.427Z,7.93
2018-12-30T15:24:42.223Z,9.27
2018-12-30T15:27:30.045Z,9.63
2018-12-30T15:30:17.858Z,22.10
2018-12-30T15:35:59.261Z,14.77
2018-12-30T15:38:27.732Z,11.20
2018-12-30T15:41:15.923Z,9.17
2018-12-30T15:44:03.774Z,16.40
2018-12-30T15:46:51.661Z,10.27
2018-12-30T15:49:39.515Z,15.43
2018-12-30T15:52:27.384Z,12.50
2018-12-30T15:55:19.340Z,11.30
2018-12-30T15:58:04.754Z,8.97
2018-12-30T16:00:45.467Z,11.13
2018-12-30T16:03:25.869Z,10.37
2018-12-30T16:06:06.653Z,12.37
2018-12-30T16:08:47.622Z,12.03
2018-12-30T16:11:28.832Z,8.50
2018-12-30T16:14:09.860Z,9.63
2018-12-30T16:16:51.632Z,8.73
2018-12-30T16:19:32.797Z,7.93
2018-12-30T16:22:13.616Z,8.90
2018-12-30T16:24:54.499Z,9.30
2018-12-30T16:27:35.661Z,9.27
2018-12-30T16:30:16.861Z,8.17
2018-12-30T16:32:58.298Z,10.00
2018-12-30T16:35:26.839Z,8.13
2018-12-30T16:38:14.755Z,8.70
2018-12-30T16:41:02.617Z,8.33
2018-12-30T16:43:50.454Z,8.07
2018-12-30T16:46:38.287Z,8.45
2018-12-30T16:49:26.092Z,7.33
2018-12-30T16:52:13.993Z,8.30
2018-12-30T16:55:01.795Z,7.55
2018-12-30T16:57:49.632Z,9.40
2018-12-30T17:03:11.260Z,8.90
2018-12-30T17:05:59.091Z,8.93
2018-12-30T17:08:40.284Z,9.10
2018-12-30T17:11:20.605Z,9.97
2018-12-30T17:14:00.893Z,7.97
2018-12-30T17:16:41.912Z,8.35
2018-12-30T17:19:23.065Z,9.17
2018-12-30T17:22:01.824Z,9.07
2018-12-30T17:24:50.612Z,7.93
2018-12-30T17:27:39.188Z,8.20
2018-12-30T17:30:09.613Z,8.30
2018-12-30T17:32:57.473Z,8.87
2018-12-30T17:35:46.276Z,6.30
2018-12-30T17:38:34.827Z,8.53
2018-12-30T17:41:22.665Z,6.90
2018-12-30T17:43:51.122Z,7.45
2018-12-30T17:46:38.976Z,8.03
2018-12-30T17:49:26.866Z,8.63
2018-12-30T17:52:14.665Z,7.80
2018-12-30T17:55:02.663Z,8.03
2018-12-30T17:57:50.543Z,7.17
2018-12-30T18:00:38.390Z,7.45
2018-12-30T18:03:26.302Z,6.50
2018-12-30T18:09:07.281Z,7.10
2018-12-30T18:11:48.039Z,6.90
2018-12-30T18:14:28.393Z,8.27
2018-12-30T18:17:09.280Z,7.70
2018-12-30T18:19:49.745Z,7.30
2018-12-30T18:22:30.061Z,7.47
2018-12-30T18:25:10.640Z,6.63
2018-12-30T18:27:50.971Z,6.97
2018-12-30T18:30:32.066Z,6.50
2018-12-30T18:33:13.239Z,6.60
2018-12-30T18:35:54.400Z,7.10
2018-12-30T18:38:34.959Z,6.60
2018-12-30T18:41:16.104Z,6.60
2018-12-30T18:43:57.287Z,5.22
2018-12-30T18:46:36.113Z,6.63
2018-12-30T18:49:23.972Z,6.80
2018-12-30T18:52:11.770Z,5.83
2018-12-30T18:54:59.607Z,6.03
2018-12-30T18:57:47.406Z,7.13
2018-12-30T19:00:35.241Z,8.90
2018-12-30T19:06:16.941Z,6.73
2018-12-30T19:08:57.803Z,7.30
2018-12-30T19:11:38.653Z,6.65
2018-12-30T19:14:19.208Z,6.80
2018-12-30T19:16:59.674Z,5.50
2018-12-30T19:19:38.600Z,5.90
2018-12-30T19:22:26.415Z,5.73
2018-12-30T19:25:14.245Z,5.50
2018-12-30T19:28:02.081Z,5.80
2018-12-30T19:30:50.002Z,5.60
2018-12-30T19:33:37.847Z,7.63
2018-12-30T19:36:25.727Z,5.17
2018-12-30T19:39:13.562Z,5.35
2018-12-30T19:42:01.363Z,5.73
2018-12-30T19:44:49.270Z,8.40
2018-12-30T19:50:24.241Z,5.70
2018-12-30T19:53:05.191Z,6.17
2018-12-30T19:55:45.514Z,5.90
2018-12-30T19:58:26.661Z,5.60
2018-12-30T20:01:07.648Z,4.87
2018-12-30T20:03:48.483Z,6.10
2018-12-30T20:06:29.549Z,5.33
2018-12-30T20:09:10.213Z,5.90
2018-12-30T20:11:51.139Z,5.53
2018-12-30T20:14:32.314Z,6.03
2018-12-30T20:17:12.637Z,5.90
2018-12-30T20:19:53.471Z,6.40
2018-12-30T20:22:34.076Z,5.50
2018-12-30T20:25:15.248Z,6.20
2018-12-30T20:27:55.594Z,6.10
2018-12-30T20:30:36.668Z,5.75
2018-12-30T20:33:17.692Z,5.07
2018-12-30T20:35:46.273Z,5.00
2018-12-30T20:38:34.125Z,6.27
2018-12-30T20:41:21.938Z,4.55
2018-12-30T20:44:09.845Z,5.50
2018-12-30T20:46:57.641Z,4.70
2018-12-30T20:49:38.428Z,4.30
2018-12-30T20:52:19.611Z,4.40
2018-12-30T20:55:00.306Z,5.33
2018-12-30T20:57:41.047Z,4.97
2018-12-30T21:00:21.505Z,6.13
2018-12-30T21:03:02.242Z,29.73
2018-12-30T21:05:43.271Z,4.63
2018-12-30T21:08:23.869Z,4.20
2018-12-30T21:11:04.443Z,5.37
2018-12-30T21:13:43.392Z,5.03
2018-12-30T21:16:31.245Z,5.13
2018-12-30T21:18:59.759Z,5.45
2018-12-30T21:21:47.616Z,6.47
2018-12-30T21:24:35.502Z,4.80
2018-12-30T21:27:23.304Z,5.12
2018-12-30T21:33:04.484Z,5.60
2018-12-30T21:38:45.312Z,5.20
2018-12-30T21:41:33.101Z,5.10
2018-12-30T21:44:20.919Z,5.78
2018-12-30T21:47:08.749Z,5.93
2018-12-30T21:49:56.635Z,4.40
2018-12-30T21:52:25.159Z,4.83
2018-12-30T21:55:13.001Z,6.37
2018-12-30T21:58:00.806Z,4.80
2018-12-30T22:00:48.709Z,6.03
2018-12-30T22:03:17.163Z,6.00
2018-12-30T22:06:04.985Z,4.47
2018-12-30T22:08:52.792Z,5.33
2018-12-30T22:11:40.704Z,5.20
2018-12-30T22:14:28.502Z,5.43
2018-12-30T22:20:10.640Z,6.75
2018-12-30T22:22:58.499Z,5.97
2018-12-30T22:25:46.292Z,5.70
2018-12-30T22:28:34.132Z,6.17
2018-12-30T22:34:16.756Z,5.53
2018-12-30T22:37:04.659Z,6.00
2018-12-30T22:39:44.915Z,5.67
2018-12-30T22:42:32.620Z,6.07
2018-12-30T22:45:07.902Z,5.65
2018-12-30T22:47:36.400Z,6.40
2018-12-30T22:50:24.519Z,8.40
2018-12-30T22:53:12.535Z,6.87
2018-12-30T22:56:00.370Z,7.53
2018-12-30T22:58:48.167Z,6.40
2018-12-30T23:01:36.009Z,7.87
2018-12-30T23:04:23.828Z,6.08
2018-12-30T23:07:12.575Z,6.17
2018-12-30T23:10:00.384Z,6.37
2018-12-30T23:12:48.272Z,6.27
2018-12-30T23:15:28.826Z,5.25
2018-12-30T23:17:57.284Z,6.17
2018-12-30T23:20:45.119Z,6.57
2018-12-30T23:23:32.963Z,7.10
2018-12-30T23:29:27.727Z,7.10
2018-12-30T23:32:15.553Z,8.43
2018-12-30T23:35:03.453Z,8.03
2018-12-30T23:37:51.279Z,8.17
2018-12-30T23:43:45.983Z,8.87
2018-12-30T23:49:27.710Z,10.32
2018-12-30T23:52:15.581Z,8.30
2018-12-30T23:55:03.474Z,8.70
